sensor_id;sensor_type;location;lat;lon;timestamp;temperature;humidity
44037;DHT22;62488;-37.670;-63.532;2022-12-10T00:01:43;25.40;52.10
44037;DHT22;62488;-37.670;-63.532;2022-12-10T00:04:12;25.20;52.30
44037;DHT22;62488;-37.670;-63.532;2022-12-10T00:06:40;25.10;51.80
44037;DHT22;62488;-37.670;-63.532;2022-12-10T00:09:11;25.10;52.00
44037;DHT22;62488;-37.670;-63.532;2022-12-10T00:11:39;25.00;52.10
44037;DHT22;62488;-37.670;-63.532;2022-12-10T00:14:06;24.90;52.40
44037;DHT22;62488;-37.670;-63.532;2022-12-10T00:16:37;24.80;52.40
44037;DHT22;62488;-37.670;-63.532;2022-12-10T00:19:05;24.70;52.80
44037;DHT22;62488;-37.670;-63.532;2022-12-10T00:21:35;24.60;53.10
44037;DHT22;62488;-37.670;-63.532;2022-12-10T00:24:03;24.50;52.80
44037;DHT22;62488;-37.670;-63.532;2022-12-10T00:26:34;24.50;53.20
44037;DHT22;62488;-37.670;-63.532;2022-12-10T00:29:03;24.40;53.10
44037;DHT22;62488;-37.670;-63.532;2022-12-10T00:31:32;24.40;53.40
44037;DHT22;62488;-37.670;-63.532;2022-12-10T00:34:03;24.30;53.80
44037;DHT22;62488;-37.670;-63.532;2022-12-10T00:36:34;24.20;53.70
44037;DHT22;62488;-37.670;-63.532;2022-12-10T00:39:02;24.20;54.00
44037;DHT22;62488;-37.670;-63.532;2022-12-10T00:41:29;24.10;54.50
44037;DHT22;62488;-37.670;-63.532;2022-12-10T00:43:56;24.00;54.70
44037;DHT22;62488;-37.670;-63.532;2022-12-10T00:46:25;23.90;55.10
44037;DHT22;62488;-37.670;-63.532;2022-12-10T00:48:54;23.90;54.90
44037;DHT22;62488;-37.670;-63.532;2022-12-10T00:51:23;23.90;55.40
44037;DHT22;62488;-37.670;-63.532;2022-12-10T00:53:53;23.90;55.60
44037;DHT22;62488;-37.670;-63.532;2022-12-10T00:56:26;23.80;56.20
44037;DHT22;62488;-37.670;-63.532;2022-12-10T00:58:53;23.70;56.60
44037;DHT22;62488;-37.670;-63.532;2022-12-10T01:01:30;23.60;57.10
44037;DHT22;62488;-37.670;-63.532;2022-12-10T01:04:13;23.50;57.20
44037;DHT22;62488;-37.670;-63.532;2022-12-10T01:06:49;23.40;58.00
44037;DHT22;62488;-37.670;-63.532;2022-12-10T01:09:23;23.30;58.50
44037;DHT22;62488;-37.670;-63.532;2022-12-10T01:11:53;23.20;58.80
44037;DHT22;62488;-37.670;-63.532;2022-12-10T01:14:25;23.10;59.30
44037;DHT22;62488;-37.670;-63.532;2022-12-10T01:16:56;23.00;59.80
44037;DHT22;62488;-37.670;-63.532;2022-12-10T01:19:23;22.90;60.50
44037;DHT22;62488;-37.670;-63.532;2022-12-10T01:21:52;22.70;60.60
44037;DHT22;62488;-37.670;-63.532;2022-12-10T01:24:20;22.60;61.80
44037;DHT22;62488;-37.670;-63.532;2022-12-10T01:26:49;22.40;61.80
44037;DHT22;62488;-37.670;-63.532;2022-12-10T01:29:17;22.30;62.80
44037;DHT22;62488;-37.670;-63.532;2022-12-10T01:31:44;22.20;63.10
44037;DHT22;62488;-37.670;-63.532;2022-12-10T01:34:14;22.10;63.20
44037;DHT22;62488;-37.670;-63.532;2022-12-10T01:36:43;22.10;63.40
44037;DHT22;62488;-37.670;-63.532;2022-12-10T01:39:13;22.10;63.60
44037;DHT22;62488;-37.670;-63.532;2022-12-10T01:41:53;22.10;64.40
44037;DHT22;62488;-37.670;-63.532;2022-12-10T01:46:50;22.00;65.20
44037;DHT22;62488;-37.670;-63.532;2022-12-10T01:49:24;22.00;65.20
44037;DHT22;62488;-37.670;-63.532;2022-12-10T01:51:55;21.90;66.00
44037;DHT22;62488;-37.670;-63.532;2022-12-10T01:54:26;21.80;66.60
44037;DHT22;62488;-37.670;-63.532;2022-12-10T01:57:07;21.80;67.20
44037;DHT22;62488;-37.670;-63.532;2022-12-10T01:59:36;21.60;67.00
44037;DHT22;62488;-37.670;-63.532;2022-12-10T02:08:05;21.30;68.60
44037;DHT22;62488;-37.670;-63.532;2022-12-10T02:13:34;21.40;69.40
44037;DHT22;62488;-37.670;-63.532;2022-12-10T02:16:18;21.30;69.10
44037;DHT22;62488;-37.670;-63.532;2022-12-10T02:18:54;21.30;69.60
44037;DHT22;62488;-37.670;-63.532;2022-12-10T02:21:34;21.20;69.60
44037;DHT22;62488;-37.670;-63.532;2022-12-10T02:24:06;21.10;70.10
44037;DHT22;62488;-37.670;-63.532;2022-12-10T02:26:49;21.00;70.50
44037;DHT22;62488;-37.670;-63.532;2022-12-10T02:29:25;20.90;71.20
44037;DHT22;62488;-37.670;-63.532;2022-12-10T02:34:46;20.80;72.60
44037;DHT22;62488;-37.670;-63.532;2022-12-10T02:37:29;20.80;72.30
44037;DHT22;62488;-37.670;-63.532;2022-12-10T02:39:59;20.80;72.50
44037;DHT22;62488;-37.670;-63.532;2022-12-10T02:42:31;20.70;73.10
44037;DHT22;62488;-37.670;-63.532;2022-12-10T02:45:02;20.80;72.50
44037;DHT22;62488;-37.670;-63.532;2022-12-10T02:47:32;20.70;72.80
44037;DHT22;62488;-37.670;-63.532;2022-12-10T02:50:00;20.70;73.40
44037;DHT22;62488;-37.670;-63.532;2022-12-10T02:52:33;20.60;73.90
44037;DHT22;62488;-37.670;-63.532;2022-12-10T02:55:01;20.60;74.60
44037;DHT22;62488;-37.670;-63.532;2022-12-10T03:00:14;20.60;73.40
44037;DHT22;62488;-37.670;-63.532;2022-12-10T03:02:57;20.70;72.10
44037;DHT22;62488;-37.670;-63.532;2022-12-10T03:08:11;20.90;70.60
44037;DHT22;62488;-37.670;-63.532;2022-12-10T03:13:17;20.80;71.10
44037;DHT22;62488;-37.670;-63.532;2022-12-10T03:15:48;20.80;71.10
44037;DHT22;62488;-37.670;-63.532;2022-12-10T03:18:19;20.80;71.90
44037;DHT22;62488;-37.670;-63.532;2022-12-10T03:20:50;20.70;72.10
44037;DHT22;62488;-37.670;-63.532;2022-12-10T03:23:19;20.70;71.50
44037;DHT22;62488;-37.670;-63.532;2022-12-10T03:25:50;20.80;70.70
44037;DHT22;62488;-37.670;-63.532;2022-12-10T03:28:20;20.90;69.80
44037;DHT22;62488;-37.670;-63.532;2022-12-10T03:30:49;20.90;69.30
44037;DHT22;62488;-37.670;-63.532;2022-12-10T03:33:22;20.90;70.30
44037;DHT22;62488;-37.670;-63.532;2022-12-10T03:35:50;20.70;70.70
44037;DHT22;62488;-37.670;-63.532;2022-12-10T03:38:17;20.60;70.90
44037;DHT22;62488;-37.670;-63.532;2022-12-10T03:40:44;20.40;71.70
44037;DHT22;62488;-37.670;-63.532;2022-12-10T03:43:16;20.30;71.80
44037;DHT22;62488;-37.670;-63.532;2022-12-10T03:45:43;20.10;73.40
44037;DHT22;62488;-37.670;-63.532;2022-12-10T03:48:11;20.00;74.20
44037;DHT22;62488;-37.670;-63.532;2022-12-10T03:50:39;20.00;73.50
44037;DHT22;62488;-37.670;-63.532;2022-12-10T03:53:06;20.10;74.00
44037;DHT22;62488;-37.670;-63.532;2022-12-10T03:55:34;20.00;74.40
44037;DHT22;62488;-37.670;-63.532;2022-12-10T03:58:00;20.10;74.00
44037;DHT22;62488;-37.670;-63.532;2022-12-10T04:00:28;20.10;74.30
44037;DHT22;62488;-37.670;-63.532;2022-12-10T04:02:55;19.90;74.80
44037;DHT22;62488;-37.670;-63.532;2022-12-10T04:05:22;19.80;74.40
44037;DHT22;62488;-37.670;-63.532;2022-12-10T04:07:49;19.90;74.30
44037;DHT22;62488;-37.670;-63.532;2022-12-10T04:10:16;19.80;75.00
44037;DHT22;62488;-37.670;-63.532;2022-12-10T04:12:43;19.80;75.30
44037;DHT22;62488;-37.670;-63.532;2022-12-10T04:15:30;19.70;75.60
44037;DHT22;62488;-37.670;-63.532;2022-12-10T04:18:15;19.40;76.10
44037;DHT22;62488;-37.670;-63.532;2022-12-10T04:20:45;19.50;75.90
44037;DHT22;62488;-37.670;-63.532;2022-12-10T04:23:30;19.40;77.00
44037;DHT22;62488;-37.670;-63.532;2022-12-10T04:26:15;19.20;78.30
44037;DHT22;62488;-37.670;-63.532;2022-12-10T04:29:00;19.10;79.20
44037;DHT22;62488;-37.670;-63.532;2022-12-10T04:31:27;19.10;78.90
44037;DHT22;62488;-37.670;-63.532;2022-12-10T04:33:55;19.00;79.80
44037;DHT22;62488;-37.670;-63.532;2022-12-10T04:36:22;18.90;79.60
44037;DHT22;62488;-37.670;-63.532;2022-12-10T04:38:48;18.90;80.20
44037;DHT22;62488;-37.670;-63.532;2022-12-10T04:41:16;18.60;81.10
44037;DHT22;62488;-37.670;-63.532;2022-12-10T04:43:43;18.40;82.30
44037;DHT22;62488;-37.670;-63.532;2022-12-10T04:46:11;18.30;82.70
44037;DHT22;62488;-37.670;-63.532;2022-12-10T04:48:39;18.30;82.90
44037;DHT22;62488;-37.670;-63.532;2022-12-10T04:51:06;18.30;82.80
44037;DHT22;62488;-37.670;-63.532;2022-12-10T04:53:34;18.20;83.60
44037;DHT22;62488;-37.670;-63.532;2022-12-10T04:56:01;18.10;84.30
44037;DHT22;62488;-37.670;-63.532;2022-12-10T04:58:28;18.10;84.70
44037;DHT22;62488;-37.670;-63.532;2022-12-10T05:01:08;18.00;84.70
44037;DHT22;62488;-37.670;-63.532;2022-12-10T05:03:36;17.90;84.70
44037;DHT22;62488;-37.670;-63.532;2022-12-10T05:06:09;17.90;85.30
44037;DHT22;62488;-37.670;-63.532;2022-12-10T05:08:39;17.80;85.20
44037;DHT22;62488;-37.670;-63.532;2022-12-10T05:11:14;17.90;83.70
44037;DHT22;62488;-37.670;-63.532;2022-12-10T05:13:44;17.90;83.10
44037;DHT22;62488;-37.670;-63.532;2022-12-10T05:16:14;17.90;82.90
44037;DHT22;62488;-37.670;-63.532;2022-12-10T05:18:41;17.90;82.90
44037;DHT22;62488;-37.670;-63.532;2022-12-10T05:21:11;17.90;82.60
44037;DHT22;62488;-37.670;-63.532;2022-12-10T05:23:46;18.00;81.00
44037;DHT22;62488;-37.670;-63.532;2022-12-10T05:26:14;18.10;80.70
44037;DHT22;62488;-37.670;-63.532;2022-12-10T05:28:44;18.10;79.80
44037;DHT22;62488;-37.670;-63.532;2022-12-10T05:33:40;18.10;79.50
44037;DHT22;62488;-37.670;-63.532;2022-12-10T05:36:09;18.00;79.00
44037;DHT22;62488;-37.670;-63.532;2022-12-10T05:38:37;18.00;79.30
44037;DHT22;62488;-37.670;-63.532;2022-12-10T05:41:06;17.90;79.30
44037;DHT22;62488;-37.670;-63.532;2022-12-10T05:43:35;17.90;79.20
44037;DHT22;62488;-37.670;-63.532;2022-12-10T05:46:03;17.90;79.00
44037;DHT22;62488;-37.670;-63.532;2022-12-10T05:48:31;18.00;78.30
44037;DHT22;62488;-37.670;-63.532;2022-12-10T05:51:02;18.00;78.10
44037;DHT22;62488;-37.670;-63.532;2022-12-10T05:53:29;18.00;78.10
44037;DHT22;62488;-37.670;-63.532;2022-12-10T05:56:02;17.90;78.60
44037;DHT22;62488;-37.670;-63.532;2022-12-10T05:58:29;17.90;77.60
44037;DHT22;62488;-37.670;-63.532;2022-12-10T06:00:58;17.80;77.60
44037;DHT22;62488;-37.670;-63.532;2022-12-10T06:03:26;17.80;77.80
44037;DHT22;62488;-37.670;-63.532;2022-12-10T06:05:54;17.70;78.60
44037;DHT22;62488;-37.670;-63.532;2022-12-10T06:08:21;17.60;79.70
44037;DHT22;62488;-37.670;-63.532;2022-12-10T06:10:49;17.60;79.80
44037;DHT22;62488;-37.670;-63.532;2022-12-10T06:13:16;17.60;79.70
44037;DHT22;62488;-37.670;-63.532;2022-12-10T06:15:46;17.60;79.30
44037;DHT22;62488;-37.670;-63.532;2022-12-10T06:18:13;17.50;79.10
44037;DHT22;62488;-37.670;-63.532;2022-12-10T06:20:41;17.50;79.20
44037;DHT22;62488;-37.670;-63.532;2022-12-10T06:23:09;17.40;79.20
44037;DHT22;62488;-37.670;-63.532;2022-12-10T06:25:38;17.40;79.30
44037;DHT22;62488;-37.670;-63.532;2022-12-10T06:28:07;17.40;79.30
44037;DHT22;62488;-37.670;-63.532;2022-12-10T06:30:35;17.40;79.50
44037;DHT22;62488;-37.670;-63.532;2022-12-10T06:33:02;17.30;79.40
44037;DHT22;62488;-37.670;-63.532;2022-12-10T06:35:29;17.30;79.50
44037;DHT22;62488;-37.670;-63.532;2022-12-10T06:37:56;17.30;79.60
44037;DHT22;62488;-37.670;-63.532;2022-12-10T06:40:24;17.20;79.90
44037;DHT22;62488;-37.670;-63.532;2022-12-10T06:42:51;17.30;80.10
44037;DHT22;62488;-37.670;-63.532;2022-12-10T06:45:18;17.10;80.50
44037;DHT22;62488;-37.670;-63.532;2022-12-10T06:47:45;17.10;81.00
44037;DHT22;62488;-37.670;-63.532;2022-12-10T06:50:14;17.00;81.60
44037;DHT22;62488;-37.670;-63.532;2022-12-10T06:52:43;17.00;81.80
44037;DHT22;62488;-37.670;-63.532;2022-12-10T06:55:10;16.90;82.70
44037;DHT22;62488;-37.670;-63.532;2022-12-10T06:57:39;16.80;82.70
44037;DHT22;62488;-37.670;-63.532;2022-12-10T07:00:08;16.80;82.90
44037;DHT22;62488;-37.670;-63.532;2022-12-10T07:02:37;16.80;82.90
44037;DHT22;62488;-37.670;-63.532;2022-12-10T07:05:07;16.90;82.90
44037;DHT22;62488;-37.670;-63.532;2022-12-10T07:07:35;16.80;83.60
44037;DHT22;62488;-37.670;-63.532;2022-12-10T07:10:04;16.80;84.10
44037;DHT22;62488;-37.670;-63.532;2022-12-10T07:12:31;16.80;83.80
44037;DHT22;62488;-37.670;-63.532;2022-12-10T07:14:58;16.80;84.10
44037;DHT22;62488;-37.670;-63.532;2022-12-10T07:17:25;16.60;84.70
44037;DHT22;62488;-37.670;-63.532;2022-12-10T07:19:51;16.40;85.70
44037;DHT22;62488;-37.670;-63.532;2022-12-10T07:22:19;16.40;86.30
44037;DHT22;62488;-37.670;-63.532;2022-12-10T07:24:48;16.30;86.10
44037;DHT22;62488;-37.670;-63.532;2022-12-10T07:27:16;16.30;86.30
44037;DHT22;62488;-37.670;-63.532;2022-12-10T07:29:45;16.40;86.90
44037;DHT22;62488;-37.670;-63.532;2022-12-10T07:32:12;16.20;87.60
44037;DHT22;62488;-37.670;-63.532;2022-12-10T07:34:40;16.20;87.70
44037;DHT22;62488;-37.670;-63.532;2022-12-10T07:37:07;16.10;88.70
44037;DHT22;62488;-37.670;-63.532;2022-12-10T07:39:36;16.10;89.10
44037;DHT22;62488;-37.670;-63.532;2022-12-10T07:42:06;15.90;89.30
44037;DHT22;62488;-37.670;-63.532;2022-12-10T07:44:33;15.90;90.00
44037;DHT22;62488;-37.670;-63.532;2022-12-10T07:47:00;15.80;90.10
44037;DHT22;62488;-37.670;-63.532;2022-12-10T07:49:27;15.80;90.20
44037;DHT22;62488;-37.670;-63.532;2022-12-10T07:51:55;15.80;90.40
44037;DHT22;62488;-37.670;-63.532;2022-12-10T07:54:22;15.70;90.90
44037;DHT22;62488;-37.670;-63.532;2022-12-10T07:56:51;15.60;91.10
44037;DHT22;62488;-37.670;-63.532;2022-12-10T07:59:21;15.80;90.90
44037;DHT22;62488;-37.670;-63.532;2022-12-10T08:01:48;15.90;90.40
44037;DHT22;62488;-37.670;-63.532;2022-12-10T08:04:15;15.90;90.40
44037;DHT22;62488;-37.670;-63.532;2022-12-10T08:06:42;15.70;91.20
44037;DHT22;62488;-37.670;-63.532;2022-12-10T08:09:10;15.60;91.90
44037;DHT22;62488;-37.670;-63.532;2022-12-10T08:11:38;15.60;91.80
44037;DHT22;62488;-37.670;-63.532;2022-12-10T08:14:05;15.60;92.20
44037;DHT22;62488;-37.670;-63.532;2022-12-10T08:16:32;15.60;92.20
44037;DHT22;62488;-37.670;-63.532;2022-12-10T08:19:00;15.60;92.30
44037;DHT22;62488;-37.670;-63.532;2022-12-10T08:21:31;15.50;92.50
44037;DHT22;62488;-37.670;-63.532;2022-12-10T08:23:58;15.50;92.60
44037;DHT22;62488;-37.670;-63.532;2022-12-10T08:26:28;15.60;92.60
44037;DHT22;62488;-37.670;-63.532;2022-12-10T08:28:56;15.50;92.60
44037;DHT22;62488;-37.670;-63.532;2022-12-10T08:31:24;15.50;93.00
44037;DHT22;62488;-37.670;-63.532;2022-12-10T08:33:53;15.50;93.20
44037;DHT22;62488;-37.670;-63.532;2022-12-10T08:36:20;15.50;93.10
44037;DHT22;62488;-37.670;-63.532;2022-12-10T08:38:47;15.50;93.60
44037;DHT22;62488;-37.670;-63.532;2022-12-10T08:41:15;15.30;94.20
44037;DHT22;62488;-37.670;-63.532;2022-12-10T08:43:43;15.30;94.30
44037;DHT22;62488;-37.670;-63.532;2022-12-10T08:46:12;15.30;94.50
44037;DHT22;62488;-37.670;-63.532;2022-12-10T08:48:39;15.30;94.60
44037;DHT22;62488;-37.670;-63.532;2022-12-10T08:51:07;15.30;94.50
44037;DHT22;62488;-37.670;-63.532;2022-12-10T08:53:37;15.40;94.60
44037;DHT22;62488;-37.670;-63.532;2022-12-10T08:56:07;15.30;94.90
44037;DHT22;62488;-37.670;-63.532;2022-12-10T08:58:35;15.40;95.20
44037;DHT22;62488;-37.670;-63.532;2022-12-10T09:01:08;15.30;95.60
44037;DHT22;62488;-37.670;-63.532;2022-12-10T09:03:38;15.40;95.40
44037;DHT22;62488;-37.670;-63.532;2022-12-10T09:06:09;15.50;95.30
44037;DHT22;62488;-37.670;-63.532;2022-12-10T09:08:37;15.50;95.70
44037;DHT22;62488;-37.670;-63.532;2022-12-10T09:11:12;15.50;95.70
44037;DHT22;62488;-37.670;-63.532;2022-12-10T09:13:40;15.50;95.70
44037;DHT22;62488;-37.670;-63.532;2022-12-10T09:16:07;15.50;95.80
44037;DHT22;62488;-37.670;-63.532;2022-12-10T09:18:35;15.60;95.90
44037;DHT22;62488;-37.670;-63.532;2022-12-10T09:21:06;15.70;95.70
44037;DHT22;62488;-37.670;-63.532;2022-12-10T09:23:34;15.70;95.70
44037;DHT22;62488;-37.670;-63.532;2022-12-10T09:26:01;15.50;96.10
44037;DHT22;62488;-37.670;-63.532;2022-12-10T09:28:33;15.50;96.70
44037;DHT22;62488;-37.670;-63.532;2022-12-10T09:31:01;15.60;96.90
44037;DHT22;62488;-37.670;-63.532;2022-12-10T09:33:29;15.80;96.70
44037;DHT22;62488;-37.670;-63.532;2022-12-10T09:35:56;16.00;96.20
44037;DHT22;62488;-37.670;-63.532;2022-12-10T09:38:24;16.00;96.20
44037;DHT22;62488;-37.670;-63.532;2022-12-10T09:41:01;16.30;96.10
44037;DHT22;62488;-37.670;-63.532;2022-12-10T09:49:23;16.50;95.80
44037;DHT22;62488;-37.670;-63.532;2022-12-10T09:51:57;16.50;95.90
44037;DHT22;62488;-37.670;-63.532;2022-12-10T09:54:32;16.70;96.70
44037;DHT22;62488;-37.670;-63.532;2022-12-10T09:57:01;16.70;96.10
44037;DHT22;62488;-37.670;-63.532;2022-12-10T09:59:39;16.90;96.10
44037;DHT22;62488;-37.670;-63.532;2022-12-10T10:02:26;17.00;96.10
44037;DHT22;62488;-37.670;-63.532;2022-12-10T10:05:20;17.20;95.90
44037;DHT22;62488;-37.670;-63.532;2022-12-10T10:07:51;17.50;95.70
44037;DHT22;62488;-37.670;-63.532;2022-12-10T10:13:42;17.70;94.80
44037;DHT22;62488;-37.670;-63.532;2022-12-10T10:16:27;17.90;95.00
44037;DHT22;62488;-37.670;-63.532;2022-12-10T10:19:03;18.30;94.90
44037;DHT22;62488;-37.670;-63.532;2022-12-10T10:21:39;18.20;94.60
44037;DHT22;62488;-37.670;-63.532;2022-12-10T10:24:09;18.40;94.10
44037;DHT22;62488;-37.670;-63.532;2022-12-10T10:26:40;18.50;94.10
44037;DHT22;62488;-37.670;-63.532;2022-12-10T10:29:12;18.80;94.30
44037;DHT22;62488;-37.670;-63.532;2022-12-10T10:31:41;18.90;93.80
44037;DHT22;62488;-37.670;-63.532;2022-12-10T10:34:22;19.20;93.50
44037;DHT22;62488;-37.670;-63.532;2022-12-10T10:36:56;19.40;93.00
44037;DHT22;62488;-37.670;-63.532;2022-12-10T10:39:31;19.40;92.60
44037;DHT22;62488;-37.670;-63.532;2022-12-10T10:41:59;19.60;93.10
44037;DHT22;62488;-37.670;-63.532;2022-12-10T10:44:38;19.80;92.40
44037;DHT22;62488;-37.670;-63.532;2022-12-10T10:47:25;19.80;92.30
44037;DHT22;62488;-37.670;-63.532;2022-12-10T10:49:54;19.90;92.00
44037;DHT22;62488;-37.670;-63.532;2022-12-10T10:52:21;20.00;92.20
44037;DHT22;62488;-37.670;-63.532;2022-12-10T10:54:48;20.20;91.80
44037;DHT22;62488;-37.670;-63.532;2022-12-10T11:00:01;20.60;91.40
44037;DHT22;62488;-37.670;-63.532;2022-12-10T11:02:41;20.80;90.80
44037;DHT22;62488;-37.670;-63.532;2022-12-10T11:05:23;20.70;90.40
44037;DHT22;62488;-37.670;-63.532;2022-12-10T11:08:17;20.70;89.90
44037;DHT22;62488;-37.670;-63.532;2022-12-10T11:11:03;20.80;88.70
44037;DHT22;62488;-37.670;-63.532;2022-12-10T11:13:34;20.80;88.80
44037;DHT22;62488;-37.670;-63.532;2022-12-10T11:16:20;21.00;88.40
44037;DHT22;62488;-37.670;-63.532;2022-12-10T11:19:02;21.20;88.30
44037;DHT22;62488;-37.670;-63.532;2022-12-10T11:21:32;21.30;88.30
44037;DHT22;62488;-37.670;-63.532;2022-12-10T11:24:00;21.50;86.10
44037;DHT22;62488;-37.670;-63.532;2022-12-10T11:27:09;21.70;85.20
44037;DHT22;62488;-37.670;-63.532;2022-12-10T11:43:45;22.20;79.10
44037;DHT22;62488;-37.670;-63.532;2022-12-10T11:52:16;22.70;77.90
44037;DHT22;62488;-37.670;-63.532;2022-12-10T11:58:16;22.70;78.50
44037;DHT22;62488;-37.670;-63.532;2022-12-10T12:04:00;23.00;76.50
44037;DHT22;62488;-37.670;-63.532;2022-12-10T12:12:10;23.30;75.00
44037;DHT22;62488;-37.670;-63.532;2022-12-10T12:17:37;23.80;77.70
44037;DHT22;62488;-37.670;-63.532;2022-12-10T12:26:02;24.00;73.40
44037;DHT22;62488;-37.670;-63.532;2022-12-10T12:28:39;24.00;72.70
44037;DHT22;62488;-37.670;-63.532;2022-12-10T12:31:31;24.00;73.00
44037;DHT22;62488;-37.670;-63.532;2022-12-10T12:36:40;24.60;71.10
44037;DHT22;62488;-37.670;-63.532;2022-12-10T12:42:13;25.20;70.80
44037;DHT22;62488;-37.670;-63.532;2022-12-10T12:50:54;25.40;70.30
44037;DHT22;62488;-37.670;-63.532;2022-12-10T12:53:23;25.20;68.80
44037;DHT22;62488;-37.670;-63.532;2022-12-10T12:56:04;25.80;71.00
44037;DHT22;62488;-37.670;-63.532;2022-12-10T12:58:41;25.80;67.90
44037;DHT22;62488;-37.670;-63.532;2022-12-10T13:03:51;25.80;67.70
44037;DHT22;62488;-37.670;-63.532;2022-12-10T13:06:28;26.20;68.40
44037;DHT22;62488;-37.670;-63.532;2022-12-10T13:09:15;26.10;65.60
44037;DHT22;62488;-37.670;-63.532;2022-12-10T13:14:34;25.60;66.00
44037;DHT22;62488;-37.670;-63.532;2022-12-10T13:17:31;26.20;67.90
44037;DHT22;62488;-37.670;-63.532;2022-12-10T13:20:29;26.00;65.90
44037;DHT22;62488;-37.670;-63.532;2022-12-10T13:31:15;26.20;65.00
44037;DHT22;62488;-37.670;-63.532;2022-12-10T13:36:35;26.80;64.80
44037;DHT22;62488;-37.670;-63.532;2022-12-10T13:41:41;27.30;65.90
44037;DHT22;62488;-37.670;-63.532;2022-12-10T13:44:47;27.00;62.50
44037;DHT22;62488;-37.670;-63.532;2022-12-10T13:47:32;27.20;64.50
44037;DHT22;62488;-37.670;-63.532;2022-12-10T13:53:54;27.20;64.50
44037;DHT22;62488;-37.670;-63.532;2022-12-10T14:05:00;27.90;62.80
44037;DHT22;62488;-37.670;-63.532;2022-12-10T14:07:30;27.90;62.20
44037;DHT22;62488;-37.670;-63.532;2022-12-10T14:09:59;28.20;60.70
44037;DHT22;62488;-37.670;-63.532;2022-12-10T14:12:36;27.90;61.30
44037;DHT22;62488;-37.670;-63.532;2022-12-10T14:15:07;28.30;63.10
44037;DHT22;62488;-37.670;-63.532;2022-12-10T14:17:40;28.20;61.70
44037;DHT22;62488;-37.670;-63.532;2022-12-10T14:20:14;28.50;60.00
44037;DHT22;62488;-37.670;-63.532;2022-12-10T14:22:48;28.20;60.90
44037;DHT22;62488;-37.670;-63.532;2022-12-10T14:25:22;28.90;62.20
44037;DHT22;62488;-37.670;-63.532;2022-12-10T14:27:51;29.10;61.90
44037;DHT22;62488;-37.670;-63.532;2022-12-10T14:32:48;29.10;60.10
44037;DHT22;62488;-37.670;-63.532;2022-12-10T14:35:26;29.10;61.50
44037;DHT22;62488;-37.670;-63.532;2022-12-10T14:37:57;29.70;61.20
44037;DHT22;62488;-37.670;-63.532;2022-12-10T14:40:32;29.60;60.40
44037;DHT22;62488;-37.670;-63.532;2022-12-10T14:43:22;29.40;60.20
44037;DHT22;62488;-37.670;-63.532;2022-12-10T14:45:59;29.40;60.20
44037;DHT22;62488;-37.670;-63.532;2022-12-10T14:48:29;29.00;61.60
44037;DHT22;62488;-37.670;-63.532;2022-12-10T14:51:14;29.40;61.70
44037;DHT22;62488;-37.670;-63.532;2022-12-10T14:53:42;29.40;62.00
44037;DHT22;62488;-37.670;-63.532;2022-12-10T14:56:11;29.90;62.10
44037;DHT22;62488;-37.670;-63.532;2022-12-10T15:01:37;30.20;61.30
44037;DHT22;62488;-37.670;-63.532;2022-12-10T15:04:16;30.30;59.50
44037;DHT22;62488;-37.670;-63.532;2022-12-10T15:06:47;30.30;59.00
44037;DHT22;62488;-37.670;-63.532;2022-12-10T15:09:23;30.90;59.20
44037;DHT22;62488;-37.670;-63.532;2022-12-10T15:11:59;30.50;60.20
44037;DHT22;62488;-37.670;-63.532;2022-12-10T15:14:30;31.00;60.00
44037;DHT22;62488;-37.670;-63.532;2022-12-10T15:16:57;31.00;59.20
44037;DHT22;62488;-37.670;-63.532;2022-12-10T15:22:19;31.00;58.40
44037;DHT22;62488;-37.670;-63.532;2022-12-10T15:24:46;31.10;60.70
44037;DHT22;62488;-37.670;-63.532;2022-12-10T15:27:22;31.50;60.60
44037;DHT22;62488;-37.670;-63.532;2022-12-10T15:29:52;30.80;58.70
44037;DHT22;62488;-37.670;-63.532;2022-12-10T15:32:27;30.90;59.50
44037;DHT22;62488;-37.670;-63.532;2022-12-10T15:35:00;31.50;58.30
44037;DHT22;62488;-37.670;-63.532;2022-12-10T15:37:34;32.30;59.60
44037;DHT22;62488;-37.670;-63.532;2022-12-10T15:40:06;32.10;58.10
44037;DHT22;62488;-37.670;-63.532;2022-12-10T15:42:44;31.40;57.30
44037;DHT22;62488;-37.670;-63.532;2022-12-10T15:47:53;32.30;57.10
44037;DHT22;62488;-37.670;-63.532;2022-12-10T15:50:24;32.00;57.50
44037;DHT22;62488;-37.670;-63.532;2022-12-10T15:52:51;32.40;56.00
44037;DHT22;62488;-37.670;-63.532;2022-12-10T15:55:19;32.40;56.10
44037;DHT22;62488;-37.670;-63.532;2022-12-10T15:57:46;32.50;56.10
44037;DHT22;62488;-37.670;-63.532;2022-12-10T16:00:22;32.00;56.10
44037;DHT22;62488;-37.670;-63.532;2022-12-10T16:02:59;32.20;56.70
44037;DHT22;62488;-37.670;-63.532;2022-12-10T16:05:35;32.70;54.60
44037;DHT22;62488;-37.670;-63.532;2022-12-10T16:08:22;33.10;56.90
44037;DHT22;62488;-37.670;-63.532;2022-12-10T16:10:51;33.60;57.80
44037;DHT22;62488;-37.670;-63.532;2022-12-10T16:13:23;33.10;55.30
44037;DHT22;62488;-37.670;-63.532;2022-12-10T16:15:54;33.00;55.80
44037;DHT22;62488;-37.670;-63.532;2022-12-10T16:18:24;33.10;55.70
44037;DHT22;62488;-37.670;-63.532;2022-12-10T16:20:51;33.40;56.00
44037;DHT22;62488;-37.670;-63.532;2022-12-10T16:23:18;33.10;56.40
44037;DHT22;62488;-37.670;-63.532;2022-12-10T16:25:46;33.70;55.00
44037;DHT22;62488;-37.670;-63.532;2022-12-10T16:28:19;33.50;55.10
44037;DHT22;62488;-37.670;-63.532;2022-12-10T16:30:49;33.80;56.50
44037;DHT22;62488;-37.670;-63.532;2022-12-10T16:33:20;33.60;56.20
44037;DHT22;62488;-37.670;-63.532;2022-12-10T16:35:50;33.90;55.90
44037;DHT22;62488;-37.670;-63.532;2022-12-10T16:38:18;33.70;54.10
44037;DHT22;62488;-37.670;-63.532;2022-12-10T16:40:46;33.40;53.40
44037;DHT22;62488;-37.670;-63.532;2022-12-10T16:43:16;33.50;53.30
44037;DHT22;62488;-37.670;-63.532;2022-12-10T16:45:47;33.60;54.90
44037;DHT22;62488;-37.670;-63.532;2022-12-10T16:48:16;33.70;54.60
44037;DHT22;62488;-37.670;-63.532;2022-12-10T16:50:44;33.70;54.90
44037;DHT22;62488;-37.670;-63.532;2022-12-10T16:53:26;33.60;54.70
44037;DHT22;62488;-37.670;-63.532;2022-12-10T16:55:56;34.10;48.10
44037;DHT22;62488;-37.670;-63.532;2022-12-10T16:58:24;33.80;50.80
44037;DHT22;62488;-37.670;-63.532;2022-12-10T17:00:54;34.00;53.00
44037;DHT22;62488;-37.670;-63.532;2022-12-10T17:03:21;34.00;51.20
44037;DHT22;62488;-37.670;-63.532;2022-12-10T17:05:54;34.10;50.90
44037;DHT22;62488;-37.670;-63.532;2022-12-10T17:08:24;34.00;49.40
44037;DHT22;62488;-37.670;-63.532;2022-12-10T17:10:52;34.00;50.20
44037;DHT22;62488;-37.670;-63.532;2022-12-10T17:13:39;33.60;50.10
44037;DHT22;62488;-37.670;-63.532;2022-12-10T17:16:15;34.40;50.20
44037;DHT22;62488;-37.670;-63.532;2022-12-10T17:18:43;34.20;50.70
44037;DHT22;62488;-37.670;-63.532;2022-12-10T17:21:10;34.50;51.00
44037;DHT22;62488;-37.670;-63.532;2022-12-10T17:23:37;34.20;49.40
44037;DHT22;62488;-37.670;-63.532;2022-12-10T17:26:05;34.40;50.30